Time;durP1;ratioP1;P1;durP2;ratioP2;P2;SDS_P1;SDS_P2;PMS_P1;PMS_P2;Temp;Humidity;BMP_temperature;BMP_pressure;BME280_temperature;BME280_humidity;BME280_pressure;Samples;Min_cycle;Max_cycle;Signal;HPM_P1;HPM_P2
2022/07/06 00:00:48;;;;;;;;;;;;;;;;;;2140709;27;20430;-45
2022/07/06 00:01:50;;;;;;;;;;;;;;;;;;2140687;27;19930;-45
2022/07/06 00:02:51;;;;;;;;;;;;;;;;;;2140653;27;20021;-46
2022/07/06 00:03:52;;;;;;;;;;;;;;;;;;2140594;27;19926;-45
2022/07/06 00:04:57;;;;;;;;;;;;;;;;;;2140694;27;19923;-45
2022/07/06 00:05:58;;;;;;;;;;;;;;;;;;2140488;27;19977;-46
2022/07/06 00:06:59;;;;;;;;;;;;;;;;;;2140685;27;19927;-46
2022/07/06 00:08:00;;;;;;;;;;;;;;;;;;2140534;27;19923;-45
2022/07/06 00:09:01;;;;;;;;;;;;;;;;;;2140700;27;20306;-45
2022/07/06 00:10:02;;;;;;;;;;;;;;;;;;2140660;27;19923;-47
2022/07/06 00:11:03;;;;;;;;;;;;;;;;;;2139160;27;19922;-45
2022/07/06 00:12:04;;;;;;;;;;;;;;;;;;2132446;27;20011;-43
2022/07/06 00:13:04;;;;;;;;;;;;;;;;;;2131705;27;20017;-43
2022/07/06 00:14:06;;;;;;;;;;;;;;;;;;2132131;27;19923;-45
2022/07/06 00:15:06;;;;;;;;;;;;;;;;;;2131830;27;19923;-45
2022/07/06 00:16:08;;;;;;;;;;;;;;;;;;2131832;27;20400;-45
2022/07/06 00:17:08;;;;;;;;;;;;;;;;;;2131843;27;19923;-45
2022/07/06 00:18:10;;;;;;;;;;;;;;;;;;2131691;27;20014;-45
2022/07/06 00:19:10;;;;;;;;;;;;;;;;;;2131048;27;19923;-45
2022/07/06 00:20:11;;;;;;;;;;;;;;;;;;2131486;27;19923;-45
2022/07/06 00:21:12;;;;;;;;;;;;;;;;;;2131792;27;20244;-46
2022/07/06 00:22:13;;;;;;;;;;;;;;;;;;2131763;27;20275;-45
2022/07/06 00:23:14;;;;;;;;;;;;;;;;;;2131952;27;19923;-46
2022/07/06 00:24:17;;;;;;;;;;;;;;;;;;2131769;27;19966;-44
2022/07/06 00:25:18;;;;;;;;;;;;;;;;;;2131977;27;19959;-43
2022/07/06 00:26:19;;;;;;;;;;;;;;;;;;2131681;27;19946;-43
2022/07/06 00:27:20;;;;;;;;;;;;;;;;;;2131797;27;20002;-43
2022/07/06 00:28:21;;;;;;;;;;;;;;;;;;2131808;27;19923;-42
2022/07/06 00:29:22;;;;;;;;;;;;;;;;;;2131833;27;20439;-43
2022/07/06 00:30:23;;;;;;;;;;;;;;;;;;2131639;27;19930;-43
2022/07/06 00:31:24;;;;;;;;;;;;;;;;;;2131687;27;19986;-44
2022/07/06 00:32:27;;;;;;;;;;;;;;;;;;2131775;27;19929;-43
2022/07/06 00:33:28;;;;;;;;;;;;;;;;;;2131615;27;19971;-43
2022/07/06 00:34:29;;;;;;;;;;;;;;;;;;2131764;27;20317;-44
2022/07/06 00:35:29;;;;;;;;;;;;;;;;;;2131953;27;19929;-45
2022/07/06 00:36:30;;;;;;;;;;;;;;;;;;2131677;27;20380;-43
2022/07/06 00:37:31;;;;;;;;;;;;;;;;;;2131894;27;19923;-43
2022/07/06 00:38:32;;;;;;;;;;;;;;;;;;2131761;27;20394;-44
2022/07/06 00:39:33;;;;;;;;;;;;;;;;;;2131749;27;20459;-45
2022/07/06 00:40:34;;;;;;;;;;;;;;;;;;2131748;27;19975;-44
2022/07/06 00:41:35;;;;;;;;;;;;;;;;;;2131713;27;20017;-46
2022/07/06 00:42:36;;;;;;;;;;;;;;;;;;2131706;27;19923;-44
2022/07/06 00:43:37;;;;;;;;;;;;;;;;;;2131852;27;20007;-45
2022/07/06 00:44:38;;;;;;;;;;;;;;;;;;2131681;27;20295;-45
2022/07/06 00:45:39;;;;;;;;;;;;;;;;;;2131579;27;19927;-45
2022/07/06 00:46:40;;;;;;;;;;;;;;;;;;2131602;27;19923;-44
2022/07/06 00:47:41;;;;;;;;;;;;;;;;;;2131766;27;19944;-44
2022/07/06 00:48:42;;;;;;;;;;;;;;;;;;2131553;27;19975;-45
2022/07/06 00:51:02;;;;;;;;;;;;;;;;;;2131548;27;20273;-45
2022/07/06 00:52:03;;;;;;;;;;;;;;;;;;2131685;27;20005;-45
2022/07/06 00:53:04;;;;;;;;;;;;;;;;;;2135337;27;20388;-43
2022/07/06 00:54:05;;;;;;;;;;;;;;;;;;2140278;27;19930;-43
2022/07/06 00:55:06;;;;;;;;;;;;;;;;;;2140394;27;19946;-43
2022/07/06 00:56:06;;;;;;;;;;;;;;;;;;2140200;27;19970;-44
2022/07/06 00:57:07;;;;;;;;;;;;;;;;;;2140301;27;19929;-44
2022/07/06 00:58:08;;;;;;;;;;;;;;;;;;2140157;27;19967;-43
2022/07/06 00:59:09;;;;;;;;;;;;;;;;;;2140414;27;20348;-44
2022/07/06 01:00:10;;;;;;;;;;;;;;;;;;2140180;27;20006;-44
2022/07/06 01:01:11;;;;;;;;;;;;;;;;;;2140306;27;19934;-43
2022/07/06 01:02:12;;;;;;;;;;;;;;;;;;2140057;27;19923;-43
2022/07/06 01:03:14;;;;;;;;;;;;;;;;;;2140448;27;19969;-46
2022/07/06 01:04:15;;;;;;;;;;;;;;;;;;2140152;27;19926;-45
2022/07/06 01:05:16;;;;;;;;;;;;;;;;;;2140359;27;20005;-49
2022/07/06 01:06:17;;;;;;;;;;;;;;;;;;2140142;27;20019;-45
2022/07/06 01:07:18;;;;;;;;;;;;;;;;;;2140319;27;20379;-46
2022/07/06 01:08:18;;;;;;;;;;;;;;;;;;2140428;27;20312;-45
2022/07/06 01:09:20;;;;;;;;;;;;;;;;;;2140156;27;20074;-45
2022/07/06 01:10:21;;;;;;;;;;;;;;;;;;2140346;27;19923;-44
2022/07/06 01:11:22;;;;;;;;;;;;;;;;;;2139919;27;19923;-45
2022/07/06 01:12:22;;;;;;;;;;;;;;;;;;2140254;27;20009;-44
2022/07/06 01:13:23;;;;;;;;;;;;;;;;;;2140331;27;19929;-45
2022/07/06 01:14:24;;;;;;;;;;;;;;;;;;2140144;27;20051;-45
2022/07/06 01:15:25;;;;;;;;;;;;;;;;;;2140329;27;19923;-45
2022/07/06 01:16:26;;;;;;;;;;;;;;;;;;2140174;27;20001;-45
2022/07/06 01:17:27;;;;;;;;;;;;;;;;;;2140255;27;20019;-45
2022/07/06 01:18:28;;;;;;;;;;;;;;;;;;2140109;27;20026;-45
2022/07/06 01:19:29;;;;;;;;;;;;;;;;;;2140155;27;19938;-45
2022/07/06 01:20:30;;;;;;;;;;;;;;;;;;2140378;27;19922;-43
2022/07/06 01:21:31;;;;;;;;;;;;;;;;;;2140074;27;19933;-44
2022/07/06 01:22:32;;;;;;;;;;;;;;;;;;2140041;27;19922;-43
2022/07/06 01:23:33;;;;;;;;;;;;;;;;;;2140265;27;19930;-44
2022/07/06 01:24:34;;;;;;;;;;;;;;;;;;2140174;27;20434;-43
2022/07/06 01:25:35;;;;;;;;;;;;;;;;;;2140126;27;19929;-43
2022/07/06 01:26:36;;;;;;;;;;;;;;;;;;2140130;27;20009;-43
2022/07/06 01:27:38;;;;;;;;;;;;;;;;;;2140195;27;20283;-43
2022/07/06 01:28:39;;;;;;;;;;;;;;;;;;2140061;27;20021;-43
2022/07/06 01:29:40;;;;;;;;;;;;;;;;;;2140479;27;19923;-43
2022/07/06 01:30:41;;;;;;;;;;;;;;;;;;2140363;27;20009;-43
2022/07/06 01:31:42;;;;;;;;;;;;;;;;;;2141717;27;19923;-44
2022/07/06 01:32:43;;;;;;;;;;;;;;;;;;2141756;27;19922;-43
2022/07/06 01:33:44;;;;;;;;;;;;;;;;;;2141663;27;19922;-45
2022/07/06 01:34:44;;;;;;;;;;;;;;;;;;2141588;27;20273;-44
2022/07/06 01:35:45;;;;;;;;;;;;;;;;;;2141891;27;19930;-43
2022/07/06 01:36:46;;;;;;;;;;;;;;;;;;2141468;27;20406;-44
2022/07/06 01:37:47;;;;;;;;;;;;;;;;;;2141606;27;19922;-45
2022/07/06 01:38:48;;;;;;;;;;;;;;;;;;2141555;27;20364;-44
2022/07/06 01:39:49;;;;;;;;;;;;;;;;;;2141557;27;19969;-44
2022/07/06 01:40:50;;;;;;;;;;;;;;;;;;2141551;27;19929;-44
2022/07/06 01:41:51;;;;;;;;;;;;;;;;;;2141624;27;20287;-44
2022/07/06 01:42:52;;;;;;;;;;;;;;;;;;2141438;27;19926;-43
2022/07/06 01:43:53;;;;;;;;;;;;;;;;;;2141968;27;19923;-42
2022/07/06 01:44:54;;;;;;;;;;;;;;;;;;2141572;27;20006;-44
2022/07/06 01:45:58;;;;;;;;;;;;;;;;;;2141486;27;19930;-44
2022/07/06 01:46:59;;;;;;;;;;;;;;;;;;2141402;27;19933;-43
2022/07/06 01:48:00;;;;;;;;;;;;;;;;;;2141826;27;19930;-44
2022/07/06 01:49:01;;;;;;;;;;;;;;;;;;2141361;27;19998;-44
2022/07/06 01:50:02;;;;;;;;;;;;;;;;;;2141501;27;20340;-43
2022/07/06 01:51:03;;;;;;;;;;;;;;;;;;2141350;27;19969;-44
2022/07/06 01:52:04;;;;;;;;;;;;;;;;;;2141682;27;19933;-43
2022/07/06 01:53:05;;;;;;;;;;;;;;;;;;2141505;27;19929;-44
2022/07/06 01:54:06;;;;;;;;;;;;;;;;;;2141589;27;19929;-43
2022/07/06 01:55:06;;;;;;;;;;;;;;;;;;2141580;27;20041;-44
2022/07/06 01:56:07;;;;;;;;;;;;;;;;;;2141508;27;20393;-43
2022/07/06 01:57:08;;;;;;;;;;;;;;;;;;2141811;27;19977;-45
2022/07/06 01:58:09;;;;;;;;;;;;;;;;;;2141402;27;19939;-46
2022/07/06 01:59:10;;;;;;;;;;;;;;;;;;2141573;27;20017;-45
2022/07/06 02:00:11;;;;;;;;;;;;;;;;;;2141517;27;19965;-44
2022/07/06 02:01:12;;;;;;;;;;;;;;;;;;2141555;27;19926;-45
2022/07/06 02:02:15;;;;;;;;;;;;;;;;;;2141455;27;19923;-44
2022/07/06 02:03:15;;;;;;;;;;;;;;;;;;2141367;27;20009;-45
2022/07/06 02:04:16;;;;;;;;;;;;;;;;;;2141532;27;20340;-45
2022/07/06 02:05:17;;;;;;;;;;;;;;;;;;2141344;27;20422;-45
2022/07/06 02:06:18;;;;;;;;;;;;;;;;;;2141301;27;19923;-48
2022/07/06 02:07:19;;;;;;;;;;;;;;;;;;2141343;27;20029;-44
2022/07/06 02:08:21;;;;;;;;;;;;;;;;;;2141467;27;20426;-45
2022/07/06 02:09:22;;;;;;;;;;;;;;;;;;2141302;27;20272;-45
2022/07/06 02:10:23;;;;;;;;;;;;;;;;;;2141466;27;20022;-45
2022/07/06 02:11:24;;;;;;;;;;;;;;;;;;2137027;27;20394;-42
2022/07/06 02:12:25;;;;;;;;;;;;;;;;;;2132851;27;19944;-44
2022/07/06 02:13:26;;;;;;;;;;;;;;;;;;2132752;27;19923;-43
2022/07/06 02:14:27;;;;;;;;;;;;;;;;;;2132667;27;20269;-43
2022/07/06 02:15:27;;;;;;;;;;;;;;;;;;2132664;27;20376;-43
2022/07/06 02:16:28;;;;;;;;;;;;;;;;;;2132665;27;19930;-43
2022/07/06 02:17:29;;;;;;;;;;;;;;;;;;2132846;27;19927;-45
2022/07/06 02:18:30;;;;;;;;;;;;;;;;;;2132533;27;20033;-44
2022/07/06 02:19:31;;;;;;;;;;;;;;;;;;2132649;27;20014;-46
2022/07/06 02:20:50;;;;;;;;;;;;;;;;;;2132938;27;19927;-43
2022/07/06 02:21:52;;;;;;;;;;;;;;;;;;2132640;27;20409;-44
2022/07/06 02:22:53;;;;;;;;;;;;;;;;;;2132536;27;19930;-44
2022/07/06 02:23:54;;;;;;;;;;;;;;;;;;2132794;27;20080;-43
2022/07/06 02:24:55;;;;;;;;;;;;;;;;;;2132658;27;19923;-43
2022/07/06 02:25:56;;;;;;;;;;;;;;;;;;2132444;27;19931;-43
2022/07/06 02:26:57;;;;;;;;;;;;;;;;;;2132570;27;20325;-42
2022/07/06 02:27:58;;;;;;;;;;;;;;;;;;2132620;27;20018;-44
2022/07/06 02:28:59;;;;;;;;;;;;;;;;;;2132930;27;19976;-44
2022/07/06 02:29:59;;;;;;;;;;;;;;;;;;2132871;27;20006;-43
2022/07/06 02:31:01;;;;;;;;;;;;;;;;;;2132644;27;20006;-43
2022/07/06 02:32:01;;;;;;;;;;;;;;;;;;2137498;27;20350;-43
2022/07/06 02:33:03;;;;;;;;;;;;;;;;;;2141668;27;19922;-43
2022/07/06 02:34:03;;;;;;;;;;;;;;;;;;2141118;27;19929;-43
2022/07/06 02:35:04;;;;;;;;;;;;;;;;;;2141153;27;19922;-43
2022/07/06 02:36:05;;;;;;;;;;;;;;;;;;2141288;27;20005;-44
2022/07/06 02:37:06;;;;;;;;;;;;;;;;;;2141169;27;20299;-44
2022/07/06 02:38:07;;;;;;;;;;;;;;;;;;2141245;27;20339;-43
2022/07/06 02:39:08;;;;;;;;;;;;;;;;;;2141257;27;19937;-42
2022/07/06 02:40:09;;;;;;;;;;;;;;;;;;2141129;27;20461;-43
2022/07/06 02:41:10;;;;;;;;;;;;;;;;;;2141291;27;19927;-44
2022/07/06 02:42:11;;;;;;;;;;;;;;;;;;2140566;27;19923;-45
2022/07/06 02:43:12;;;;;;;;;;;;;;;;;;2140766;27;20339;-45
2022/07/06 02:44:13;;;;;;;;;;;;;;;;;;2141167;27;19923;-45
2022/07/06 02:45:14;;;;;;;;;;;;;;;;;;2140843;27;19923;-45
2022/07/06 02:46:15;;;;;;;;;;;;;;;;;;2140909;27;20009;-44
2022/07/06 02:47:16;;;;;;;;;;;;;;;;;;2141454;27;20405;-44
2022/07/06 02:48:17;;;;;;;;;;;;;;;;;;2141057;27;19967;-45
2022/07/06 02:49:18;;;;;;;;;;;;;;;;;;2141097;27;20017;-44
2022/07/06 02:50:19;;;;;;;;;;;;;;;;;;2140990;27;19933;-44
2022/07/06 02:51:20;;;;;;;;;;;;;;;;;;2141142;27;19929;-44
2022/07/06 02:52:21;;;;;;;;;;;;;;;;;;2141178;27;20469;-45
2022/07/06 02:53:22;;;;;;;;;;;;;;;;;;2140943;27;19923;-45
2022/07/06 02:54:22;;;;;;;;;;;;;;;;;;2140936;27;20041;-45
2022/07/06 02:55:24;;;;;;;;;;;;;;;;;;2141056;27;19931;-45
2022/07/06 02:56:24;;;;;;;;;;;;;;;;;;2141104;27;20018;-44
2022/07/06 02:57:25;;;;;;;;;;;;;;;;;;2141123;27;19927;-42
2022/07/06 02:58:26;;;;;;;;;;;;;;;;;;2141168;27;19929;-43
2022/07/06 02:59:27;;;;;;;;;;;;;;;;;;2140990;27;19923;-43
2022/07/06 03:00:28;;;;;;;;;;;;;;;;;;2141135;27;19957;-43
2022/07/06 03:01:29;;;;;;;;;;;;;;;;;;2141016;27;19944;-43
2022/07/06 03:02:31;;;;;;;;;;;;;;;;;;2141090;27;19929;-43
2022/07/06 03:03:32;;;;;;;;;;;;;;;;;;2141223;27;19998;-43
2022/07/06 03:04:33;;;;;;;;;;;;;;;;;;2141077;27;19934;-43
2022/07/06 03:05:34;;;;;;;;;;;;;;;;;;2141125;27;20271;-43
2022/07/06 03:06:35;;;;;;;;;;;;;;;;;;2141060;27;20332;-43
2022/07/06 03:07:36;;;;;;;;;;;;;;;;;;2141057;27;20010;-44
2022/07/06 03:08:37;;;;;;;;;;;;;;;;;;2140879;27;19926;-44
2022/07/06 03:09:38;;;;;;;;;;;;;;;;;;2140929;27;20422;-45
2022/07/06 03:10:39;;;;;;;;;;;;;;;;;;2140955;27;19975;-43
2022/07/06 03:11:40;;;;;;;;;;;;;;;;;;2134082;27;20348;-44
2022/07/06 03:12:41;;;;;;;;;;;;;;;;;;2132346;27;19930;-43
2022/07/06 03:13:41;;;;;;;;;;;;;;;;;;2132344;27;20021;-43
2022/07/06 03:14:43;;;;;;;;;;;;;;;;;;2132454;27;20359;-44
2022/07/06 03:15:44;;;;;;;;;;;;;;;;;;2132574;27;20006;-44
2022/07/06 03:16:45;;;;;;;;;;;;;;;;;;2132350;27;19938;-45
2022/07/06 03:17:50;;;;;;;;;;;;;;;;;;2132407;27;19977;-45
2022/07/06 03:18:52;;;;;;;;;;;;;;;;;;2132560;27;19934;-44
2022/07/06 03:19:53;;;;;;;;;;;;;;;;;;2132471;27;19923;-43
2022/07/06 03:20:54;;;;;;;;;;;;;;;;;;2132266;27;19930;-43
2022/07/06 03:21:54;;;;;;;;;;;;;;;;;;2132185;27;20352;-44
2022/07/06 03:22:55;;;;;;;;;;;;;;;;;;2132479;27;19924;-44
2022/07/06 03:23:56;;;;;;;;;;;;;;;;;;2132187;27;19968;-43
2022/07/06 03:24:57;;;;;;;;;;;;;;;;;;2132323;27;19927;-43
2022/07/06 03:25:58;;;;;;;;;;;;;;;;;;2132257;27;19937;-44
2022/07/06 03:26:59;;;;;;;;;;;;;;;;;;2132156;27;19931;-44
2022/07/06 03:28:00;;;;;;;;;;;;;;;;;;2132182;27;20386;-43
2022/07/06 03:29:01;;;;;;;;;;;;;;;;;;2132217;27;19922;-43
2022/07/06 03:30:02;;;;;;;;;;;;;;;;;;2132062;27;20678;-44
2022/07/06 03:31:03;;;;;;;;;;;;;;;;;;2132073;27;19923;-43
2022/07/06 03:32:04;;;;;;;;;;;;;;;;;;2132299;27;19967;-43
2022/07/06 03:33:05;;;;;;;;;;;;;;;;;;2132102;27;20376;-43
2022/07/06 03:34:06;;;;;;;;;;;;;;;;;;2132290;27;20013;-45
2022/07/06 03:35:07;;;;;;;;;;;;;;;;;;2132315;27;19923;-43
2022/07/06 03:36:08;;;;;;;;;;;;;;;;;;2132047;27;20348;-43
2022/07/06 03:37:09;;;;;;;;;;;;;;;;;;2132145;27;19923;-43
2022/07/06 03:38:10;;;;;;;;;;;;;;;;;;2132242;27;20051;-42
2022/07/06 03:39:11;;;;;;;;;;;;;;;;;;2132185;27;19923;-44
2022/07/06 03:40:11;;;;;;;;;;;;;;;;;;2132032;27;20036;-43
2022/07/06 03:41:12;;;;;;;;;;;;;;;;;;2132315;27;19923;-44
2022/07/06 03:42:13;;;;;;;;;;;;;;;;;;2139433;27;20270;-43
2022/07/06 03:43:14;;;;;;;;;;;;;;;;;;2141007;27;19930;-44
2022/07/06 03:44:15;;;;;;;;;;;;;;;;;;2140862;27;20063;-43
2022/07/06 03:45:16;;;;;;;;;;;;;;;;;;2141024;27;19931;-45
2022/07/06 03:46:17;;;;;;;;;;;;;;;;;;2140622;27;20390;-45
2022/07/06 03:47:18;;;;;;;;;;;;;;;;;;2140719;27;19923;-47
2022/07/06 03:48:19;;;;;;;;;;;;;;;;;;2140512;27;20311;-47
2022/07/06 03:49:20;;;;;;;;;;;;;;;;;;2140714;27;20268;-45
2022/07/06 03:50:21;;;;;;;;;;;;;;;;;;2141178;27;20052;-45
2022/07/06 03:51:22;;;;;;;;;;;;;;;;;;2140515;27;19923;-46
2022/07/06 03:52:23;;;;;;;;;;;;;;;;;;2140795;27;20006;-45
2022/07/06 03:53:24;;;;;;;;;;;;;;;;;;2140393;27;20339;-45
2022/07/06 03:54:25;;;;;;;;;;;;;;;;;;2140843;27;20022;-45
2022/07/06 03:55:26;;;;;;;;;;;;;;;;;;2141012;27;20323;-43
2022/07/06 03:56:30;;;;;;;;;;;;;;;;;;2140690;27;20017;-43
2022/07/06 03:57:31;;;;;;;;;;;;;;;;;;2141309;27;19930;-43
2022/07/06 03:58:32;;;;;;;;;;;;;;;;;;2140594;27;20067;-43
2022/07/06 03:59:33;;;;;;;;;;;;;;;;;;2140701;27;19971;-44
2022/07/06 04:00:34;;;;;;;;;;;;;;;;;;2140687;27;20013;-43
2022/07/06 04:01:35;;;;;;;;;;;;;;;;;;2140597;27;20379;-44
2022/07/06 04:02:36;;;;;;;;;;;;;;;;;;2140515;27;19931;-43
2022/07/06 04:03:37;;;;;;;;;;;;;;;;;;2140467;27;19927;-44
2022/07/06 04:04:38;;;;;;;;;;;;;;;;;;2140637;27;20050;-44
2022/07/06 04:05:39;;;;;;;;;;;;;;;;;;2140792;27;19923;-46
2022/07/06 04:06:40;;;;;;;;;;;;;;;;;;2140611;27;19969;-46
2022/07/06 04:07:41;;;;;;;;;;;;;;;;;;2140902;27;20059;-45
2022/07/06 04:08:42;;;;;;;;;;;;;;;;;;2140585;27;19922;-44
2022/07/06 04:09:43;;;;;;;;;;;;;;;;;;2140741;27;20477;-45
2022/07/06 04:10:44;;;;;;;;;;;;;;;;;;2140643;27;20005;-45
2022/07/06 04:11:45;;;;;;;;;;;;;;;;;;2132987;27;19968;-45
2022/07/06 04:12:45;;;;;;;;;;;;;;;;;;2132005;27;19998;-45
2022/07/06 04:13:46;;;;;;;;;;;;;;;;;;2131774;27;20019;-45
2022/07/06 04:14:47;;;;;;;;;;;;;;;;;;2132022;27;20005;-44
2022/07/06 04:15:48;;;;;;;;;;;;;;;;;;2131890;27;20364;-45
2022/07/06 04:16:49;;;;;;;;;;;;;;;;;;2131990;27;20053;-44
2022/07/06 04:17:53;;;;;;;;;;;;;;;;;;2131936;27;19927;-46
2022/07/06 04:18:54;;;;;;;;;;;;;;;;;;2132001;27;19923;-43
2022/07/06 04:19:55;;;;;;;;;;;;;;;;;;2132036;27;19966;-44
2022/07/06 04:20:57;;;;;;;;;;;;;;;;;;2132165;27;19996;-43
2022/07/06 04:21:58;;;;;;;;;;;;;;;;;;2132630;27;19923;-44
2022/07/06 04:22:59;;;;;;;;;;;;;;;;;;2131967;27;19991;-43
2022/07/06 04:24:00;;;;;;;;;;;;;;;;;;2131818;27;20014;-45
2022/07/06 04:25:01;;;;;;;;;;;;;;;;;;2131908;27;20006;-47
2022/07/06 04:26:02;;;;;;;;;;;;;;;;;;2131943;27;20414;-44
2022/07/06 04:27:03;;;;;;;;;;;;;;;;;;2131761;27;20359;-44
2022/07/06 04:28:04;;;;;;;;;;;;;;;;;;2131823;27;19930;-45
2022/07/06 04:29:04;;;;;;;;;;;;;;;;;;2131869;27;20026;-45
2022/07/06 04:30:06;;;;;;;;;;;;;;;;;;2131782;27;19923;-45
2022/07/06 04:31:06;;;;;;;;;;;;;;;;;;2131870;27;20063;-45
2022/07/06 04:32:07;;;;;;;;;;;;;;;;;;2132350;27;20000;-43
2022/07/06 04:33:08;;;;;;;;;;;;;;;;;;2131777;27;20352;-43
2022/07/06 04:34:09;;;;;;;;;;;;;;;;;;2131574;27;19931;-43
2022/07/06 04:35:10;;;;;;;;;;;;;;;;;;2132235;27;20040;-45
2022/07/06 04:36:11;;;;;;;;;;;;;;;;;;2131697;27;19927;-44
2022/07/06 04:37:12;;;;;;;;;;;;;;;;;;2131736;27;20014;-44
2022/07/06 04:38:13;;;;;;;;;;;;;;;;;;2136571;27;20287;-46
2022/07/06 04:39:14;;;;;;;;;;;;;;;;;;2140370;27;19923;-45
2022/07/06 04:40:15;;;;;;;;;;;;;;;;;;2140356;27;19982;-45
2022/07/06 04:41:19;;;;;;;;;;;;;;;;;;2140766;27;19922;-45
2022/07/06 04:42:20;;;;;;;;;;;;;;;;;;2140465;27;20054;-43
2022/07/06 04:43:21;;;;;;;;;;;;;;;;;;2140465;27;19926;-44
2022/07/06 04:44:21;;;;;;;;;;;;;;;;;;2140516;27;20009;-43
2022/07/06 04:45:22;;;;;;;;;;;;;;;;;;2140316;27;19930;-43
2022/07/06 04:46:24;;;;;;;;;;;;;;;;;;2140192;27;19962;-42
2022/07/06 04:47:25;;;;;;;;;;;;;;;;;;2140326;27;19926;-44
2022/07/06 04:48:26;;;;;;;;;;;;;;;;;;2140357;27;20013;-42
2022/07/06 04:49:27;;;;;;;;;;;;;;;;;;2140510;27;19997;-44
2022/07/06 04:50:28;;;;;;;;;;;;;;;;;;2140341;27;20268;-45
2022/07/06 04:51:29;;;;;;;;;;;;;;;;;;2140429;27;19977;-45
2022/07/06 04:52:30;;;;;;;;;;;;;;;;;;2140357;27;19923;-45
2022/07/06 04:53:31;;;;;;;;;;;;;;;;;;2140541;27;19969;-47
2022/07/06 04:54:32;;;;;;;;;;;;;;;;;;2140645;27;19981;-46
2022/07/06 04:55:33;;;;;;;;;;;;;;;;;;2140209;27;20355;-46
2022/07/06 04:56:34;;;;;;;;;;;;;;;;;;2140430;27;19930;-44
2022/07/06 04:57:35;;;;;;;;;;;;;;;;;;2140817;27;20009;-43
2022/07/06 04:58:36;;;;;;;;;;;;;;;;;;2140376;27;20273;-43
2022/07/06 04:59:37;;;;;;;;;;;;;;;;;;2140813;27;19975;-45
2022/07/06 05:00:38;;;;;;;;;;;;;;;;;;2140558;27;20324;-44
2022/07/06 05:01:40;;;;;;;;;;;;;;;;;;2140099;27;19923;-45
2022/07/06 05:02:42;;;;;;;;;;;;;;;;;;2140477;27;19922;-45
2022/07/06 05:03:44;;;;;;;;;;;;;;;;;;2140289;27;20295;-45
2022/07/06 05:04:45;;;;;;;;;;;;;;;;;;2140554;27;19922;-45
2022/07/06 05:05:46;;;;;;;;;;;;;;;;;;2140851;27;20274;-44
2022/07/06 05:06:47;;;;;;;;;;;;;;;;;;2142101;27;19929;-45
2022/07/06 05:07:48;;;;;;;;;;;;;;;;;;2141697;27;19961;-44
2022/07/06 05:08:49;;;;;;;;;;;;;;;;;;2141820;27;19926;-44
2022/07/06 05:09:50;;;;;;;;;;;;;;;;;;2141817;27;20013;-43
2022/07/06 05:10:52;;;;;;;;;;;;;;;;;;2141838;27;19934;-43
2022/07/06 05:11:53;;;;;;;;;;;;;;;;;;2132912;27;20443;-45
2022/07/06 05:12:55;;;;;;;;;;;;;;;;;;2133317;27;19923;-45
2022/07/06 05:13:56;;;;;;;;;;;;;;;;;;2133116;27;20001;-44
2022/07/06 05:14:57;;;;;;;;;;;;;;;;;;2133211;27;20359;-44
2022/07/06 05:15:58;;;;;;;;;;;;;;;;;;2133093;27;20364;-44
2022/07/06 05:16:59;;;;;;;;;;;;;;;;;;2133022;27;19976;-44
2022/07/06 05:18:00;;;;;;;;;;;;;;;;;;2133183;27;19981;-44
2022/07/06 05:19:01;;;;;;;;;;;;;;;;;;2132974;27;20256;-43
2022/07/06 05:20:01;;;;;;;;;;;;;;;;;;2133040;27;20067;-45
2022/07/06 05:21:03;;;;;;;;;;;;;;;;;;2133026;27;19923;-45
2022/07/06 05:22:03;;;;;;;;;;;;;;;;;;2133263;27;20482;-45
2022/07/06 05:23:04;;;;;;;;;;;;;;;;;;2133012;27;19923;-46
2022/07/06 05:24:05;;;;;;;;;;;;;;;;;;2133124;27;20002;-45
2022/07/06 05:25:06;;;;;;;;;;;;;;;;;;2133189;27;19930;-45
2022/07/06 05:26:07;;;;;;;;;;;;;;;;;;2133073;27;20015;-44
2022/07/06 05:27:08;;;;;;;;;;;;;;;;;;2133158;27;20390;-44
2022/07/06 05:28:09;;;;;;;;;;;;;;;;;;2133165;27;20355;-45
2022/07/06 05:29:10;;;;;;;;;;;;;;;;;;2132901;27;19968;-46
2022/07/06 05:30:11;;;;;;;;;;;;;;;;;;2132971;27;20379;-46
2022/07/06 05:31:12;;;;;;;;;;;;;;;;;;2133048;27;20021;-46
2022/07/06 05:32:13;;;;;;;;;;;;;;;;;;2132939;27;19949;-45
2022/07/06 05:33:14;;;;;;;;;;;;;;;;;;2133049;27;20018;-44
2022/07/06 05:34:15;;;;;;;;;;;;;;;;;;2135708;27;20294;-45
2022/07/06 05:35:16;;;;;;;;;;;;;;;;;;2141416;27;20535;-46
2022/07/06 05:36:37;;;;;;;;;;;;;;;;;;2141603;27;19937;-45
2022/07/06 05:37:38;;;;;;;;;;;;;;;;;;2141598;27;19947;-46
2022/07/06 05:38:39;;;;;;;;;;;;;;;;;;2141484;27;19948;-44
2022/07/06 05:39:43;;;;;;;;;;;;;;;;;;2142029;27;20010;-46
2022/07/06 05:40:44;;;;;;;;;;;;;;;;;;2141931;27;19923;-44
2022/07/06 05:41:45;;;;;;;;;;;;;;;;;;2141877;27;20001;-44
2022/07/06 05:42:46;;;;;;;;;;;;;;;;;;2141872;27;19968;-45
2022/07/06 05:43:47;;;;;;;;;;;;;;;;;;2141609;27;20066;-48
2022/07/06 05:44:48;;;;;;;;;;;;;;;;;;2141921;27;19931;-44
2022/07/06 05:45:49;;;;;;;;;;;;;;;;;;2141907;27;20388;-46
2022/07/06 05:46:50;;;;;;;;;;;;;;;;;;2141833;27;19952;-46
2022/07/06 05:50:29;;;;;;;;;;;;;;;;;;2141561;27;20052;-43
2022/07/06 05:51:30;;;;;;;;;;;;;;;;;;2141504;27;19930;-44
2022/07/06 05:52:31;;;;;;;;;;;;;;;;;;2141450;27;20009;-44
2022/07/06 05:53:32;;;;;;;;;;;;;;;;;;2141491;27;19923;-43
2022/07/06 05:54:33;;;;;;;;;;;;;;;;;;2141426;27;20466;-44
2022/07/06 05:55:34;;;;;;;;;;;;;;;;;;2141706;27;19930;-46
2022/07/06 05:56:35;;;;;;;;;;;;;;;;;;2141442;27;20009;-46
2022/07/06 05:57:36;;;;;;;;;;;;;;;;;;2141470;27;19927;-46
2022/07/06 05:58:37;;;;;;;;;;;;;;;;;;2141633;27;20418;-46
2022/07/06 05:59:38;;;;;;;;;;;;;;;;;;2141394;27;19930;-45
2022/07/06 06:00:39;;;;;;;;;;;;;;;;;;2141601;27;20383;-45
2022/07/06 06:01:40;;;;;;;;;;;;;;;;;;2141547;27;19970;-45
2022/07/06 06:02:41;;;;;;;;;;;;;;;;;;2141410;27;19923;-46
2022/07/06 06:03:42;;;;;;;;;;;;;;;;;;2141424;27;19954;-45
2022/07/06 06:04:43;;;;;;;;;;;;;;;;;;2141523;27;20328;-46
2022/07/06 06:05:43;;;;;;;;;;;;;;;;;;2141487;27;20360;-46
2022/07/06 06:06:44;;;;;;;;;;;;;;;;;;2141413;27;19923;-47
2022/07/06 06:07:46;;;;;;;;;;;;;;;;;;2141780;27;20443;-46
2022/07/06 06:08:47;;;;;;;;;;;;;;;;;;2141550;27;19962;-46
2022/07/06 06:09:48;;;;;;;;;;;;;;;;;;2141519;27;20045;-46
2022/07/06 06:10:49;;;;;;;;;;;;;;;;;;2141444;27;20021;-47
2022/07/06 06:11:50;;;;;;;;;;;;;;;;;;2133214;27;19973;-47
2022/07/06 06:12:51;;;;;;;;;;;;;;;;;;2132751;27;19923;-47
2022/07/06 06:13:51;;;;;;;;;;;;;;;;;;2132756;27;20052;-47
2022/07/06 06:14:53;;;;;;;;;;;;;;;;;;2132891;27;19923;-44
2022/07/06 06:15:53;;;;;;;;;;;;;;;;;;2133828;27;20397;-43
2022/07/06 06:16:54;;;;;;;;;;;;;;;;;;2132787;27;19926;-42
2022/07/06 06:17:55;;;;;;;;;;;;;;;;;;2133019;27;20013;-41
2022/07/06 06:18:56;;;;;;;;;;;;;;;;;;2132931;27;20261;-42
2022/07/06 06:19:57;;;;;;;;;;;;;;;;;;2133084;27;20005;-45
2022/07/06 06:20:58;;;;;;;;;;;;;;;;;;2132750;27;19927;-45
2022/07/06 06:21:59;;;;;;;;;;;;;;;;;;2132651;27;19923;-45
2022/07/06 06:23:00;;;;;;;;;;;;;;;;;;2132614;27;19927;-46
2022/07/06 06:24:01;;;;;;;;;;;;;;;;;;2132752;27;20023;-45
2022/07/06 06:25:02;;;;;;;;;;;;;;;;;;2132614;27;20059;-45
2022/07/06 06:26:03;;;;;;;;;;;;;;;;;;2132571;27;19923;-45
2022/07/06 06:27:04;;;;;;;;;;;;;;;;;;2132690;27;19967;-45
2022/07/06 06:28:05;;;;;;;;;;;;;;;;;;2132950;27;19923;-44
2022/07/06 06:29:06;;;;;;;;;;;;;;;;;;2132813;27;19958;-47
2022/07/06 06:30:07;;;;;;;;;;;;;;;;;;2133269;27;20299;-45
2022/07/06 06:31:08;;;;;;;;;;;;;;;;;;2140668;27;19929;-45
2022/07/06 06:32:08;;;;;;;;;;;;;;;;;;2141336;27;19966;-45
2022/07/06 06:33:10;;;;;;;;;;;;;;;;;;2141142;27;19931;-45
2022/07/06 06:34:11;;;;;;;;;;;;;;;;;;2141633;27;19967;-45
2022/07/06 06:35:11;;;;;;;;;;;;;;;;;;2141139;27;19923;-45
2022/07/06 06:36:12;;;;;;;;;;;;;;;;;;2141285;27;20125;-46
2022/07/06 06:37:13;;;;;;;;;;;;;;;;;;2141378;27;19927;-46
2022/07/06 06:38:14;;;;;;;;;;;;;;;;;;2141317;27;19923;-45
2022/07/06 06:39:15;;;;;;;;;;;;;;;;;;2141260;27;19962;-45
2022/07/06 06:40:16;;;;;;;;;;;;;;;;;;2141788;27;20145;-46
2022/07/06 06:41:20;;;;;;;;;;;;;;;;;;2141849;27;19926;-45
2022/07/06 06:42:21;;;;;;;;;;;;;;;;;;2141098;27;20022;-46
2022/07/06 06:43:22;;;;;;;;;;;;;;;;;;2141128;27;19929;-46
2022/07/06 06:44:23;;;;;;;;;;;;;;;;;;2141115;27;20005;-45
2022/07/06 06:45:24;;;;;;;;;;;;;;;;;;2141943;27;19923;-46
2022/07/06 06:46:25;;;;;;;;;;;;;;;;;;2140952;27;19945;-46
2022/07/06 06:47:26;;;;;;;;;;;;;;;;;;2141258;27;20014;-46
2022/07/06 06:48:27;;;;;;;;;;;;;;;;;;2141288;27;19945;-44
2022/07/06 06:49:29;;;;;;;;;;;;;;;;;;2141532;27;20383;-45
2022/07/06 06:50:29;;;;;;;;;;;;;;;;;;2141238;27;20144;-45
2022/07/06 06:51:30;;;;;;;;;;;;;;;;;;2141111;27;19927;-45
2022/07/06 06:52:31;;;;;;;;;;;;;;;;;;2141724;27;20025;-44
2022/07/06 06:53:41;;;;;;;;;;;;;;;;;;2141170;27;19948;-43
2022/07/06 06:54:42;;;;;;;;;;;;;;;;;;2141341;27;20013;-46
2022/07/06 06:55:43;;;;;;;;;;;;;;;;;;2141261;27;20395;-46
2022/07/06 06:56:44;;;;;;;;;;;;;;;;;;2140983;27;20017;-45
2022/07/06 06:57:45;;;;;;;;;;;;;;;;;;2141451;27;19922;-45
2022/07/06 06:58:46;;;;;;;;;;;;;;;;;;2141616;27;19922;-43
2022/07/06 07:00:08;;;;;;;;;;;;;;;;;;2141328;27;19971;-45
2022/07/06 07:01:08;;;;;;;;;;;;;;;;;;2140868;27;20408;-43
2022/07/06 07:02:09;;;;;;;;;;;;;;;;;;2141314;27;19923;-46